EGPI - Islay
Distance from station: E 5mi, 14km
Updated: 12/11/2017 1:20am
Partly Cloudy
Partly Cloudy
 Wind from NE
Wind: NE 5 mph , 7 km/h
Temperature: 37°F , 3°C
Wind Chill: 33°F , 1°C
Dew Point: 36°F , 2°C
Humidity: 93%
Barometer: 29.23 inHg , 990 hPa
Clouds: Partly Cloudy
Visibility: 6 miles , 10 km
Cloud details: Partly Cloudy 2500 ft
2017/12/11 09:20 EGPI 110920Z 04004KT 010V080 9999 SCT025 03/02 Q0990 R88/ /7903//